createdAt,value
2018-10-12T00:04:35.066Z,15.40
2018-10-12T00:10:05.688Z,15.40
2018-10-12T00:15:35.098Z,15.30
2018-10-12T00:21:08.521Z,15.30
2018-10-12T00:26:38.024Z,15.20
2018-10-12T00:32:07.522Z,15.20
2018-10-12T00:37:36.972Z,15.20
2018-10-12T00:43:06.378Z,15.20
2018-10-12T00:48:35.713Z,15.20
2018-10-12T00:54:04.992Z,15.20
2018-10-12T00:59:34.276Z,15.20
2018-10-12T01:05:04.737Z,15.20
2018-10-12T01:10:34.046Z,15.30
2018-10-12T01:16:03.402Z,15.50
2018-10-12T01:21:32.741Z,15.50
2018-10-12T01:27:04.065Z,15.60
2018-10-12T01:32:38.409Z,15.70
2018-10-12T01:38:08.846Z,15.70
2018-10-12T01:43:38.167Z,15.80
2018-10-12T01:49:07.597Z,15.80
2018-10-12T01:54:36.961Z,15.80
2018-10-12T02:00:07.041Z,15.90
2018-10-12T02:05:36.377Z,15.90
2018-10-12T02:11:06.940Z,15.90
2018-10-12T02:16:36.336Z,15.80
2018-10-12T02:22:05.731Z,15.80
2018-10-12T02:27:36.336Z,15.80
2018-10-12T02:33:05.721Z,15.80
2018-10-12T02:38:35.114Z,15.80
2018-10-12T02:44:04.446Z,15.70
2018-10-12T02:49:33.747Z,15.70
2018-10-12T02:55:04.317Z,15.80
2018-10-12T03:00:33.674Z,15.80
2018-10-12T03:06:03.062Z,15.70
2018-10-12T03:11:33.439Z,15.70
2018-10-12T03:17:02.882Z,15.70
2018-10-12T03:22:32.210Z,15.60
2018-10-12T03:28:19.755Z,15.60
2018-10-12T03:33:49.983Z,15.60
2018-10-12T03:39:19.227Z,15.60
2018-10-12T03:44:48.569Z,15.60
2018-10-12T03:50:17.907Z,15.60
2018-10-12T03:55:47.140Z,15.60
2018-10-12T04:01:16.514Z,15.60
2018-10-12T04:06:45.801Z,15.50
2018-10-12T04:12:15.032Z,15.50
2018-10-12T04:17:44.441Z,15.30
2018-10-12T04:23:14.385Z,15.20
2018-10-12T04:28:43.965Z,15.10
2018-10-12T04:34:13.349Z,14.90
2018-10-12T04:41:56.635Z,14.90
2018-10-12T04:47:30.628Z,14.80
2018-10-12T04:53:03.974Z,14.70
2018-10-12T04:58:38.018Z,14.60
2018-10-12T05:04:07.557Z,14.60
2018-10-12T05:09:37.517Z,14.50
2018-10-12T05:15:07.029Z,14.50
2018-10-12T05:20:36.646Z,14.40
2018-10-12T05:26:06.544Z,14.40
2018-10-12T05:31:36.250Z,14.30
2018-10-12T05:37:06.107Z,14.20
2018-10-12T05:42:35.693Z,14.10
2018-10-12T05:48:22.025Z,14.00
2018-10-12T05:53:52.238Z,13.90
2018-10-12T05:59:21.857Z,13.70
2018-10-12T06:04:51.389Z,13.60
2018-10-12T06:10:20.923Z,13.50
2018-10-12T06:15:50.555Z,13.60
2018-10-12T06:21:19.996Z,13.80
2018-10-12T06:26:49.496Z,13.90
2018-10-12T06:32:18.900Z,14.10
2018-10-12T06:37:48.481Z,14.30
2018-10-12T06:43:17.954Z,14.40
2018-10-12T06:48:49.741Z,14.60
2018-10-12T06:54:19.273Z,14.80
2018-10-12T06:59:48.746Z,15.00
2018-10-12T07:05:18.276Z,15.20
2018-10-12T07:10:47.746Z,15.30
2018-10-12T07:16:17.744Z,15.50
2018-10-12T07:21:47.270Z,15.70
2018-10-12T07:27:16.745Z,15.90
2018-10-12T07:32:46.329Z,16.20
2018-10-12T07:38:16.033Z,16.40
2018-10-12T07:43:45.654Z,16.60
2018-10-12T07:49:15.226Z,16.90
2018-10-12T07:54:45.294Z,17.10
2018-10-12T08:00:15.167Z,17.40
2018-10-12T08:05:44.869Z,17.70
2018-10-12T08:11:14.520Z,18.00
2018-10-12T08:16:44.053Z,18.40
2018-10-12T08:22:13.609Z,18.70
2018-10-12T08:27:42.900Z,19.10
2018-10-12T08:33:12.162Z,19.30
2018-10-12T08:38:41.505Z,19.50
2018-10-12T08:44:10.850Z,19.70
2018-10-12T08:49:40.067Z,19.90
2018-10-12T08:55:09.349Z,20.20
2018-10-12T09:00:38.633Z,20.30
2018-10-12T09:06:07.942Z,20.50
2018-10-12T09:11:37.721Z,20.70
2018-10-12T09:17:07.137Z,20.90
2018-10-12T09:22:36.412Z,21.10
2018-10-12T09:28:05.859Z,21.30
2018-10-12T09:33:35.324Z,21.40
2018-10-12T09:39:05.748Z,21.60
2018-10-12T09:44:35.328Z,21.70
2018-10-12T09:50:04.754Z,21.90
2018-10-12T09:55:34.032Z,21.90
2018-10-12T10:01:08.404Z,22.00
2018-10-12T10:06:37.784Z,22.20
2018-10-12T10:12:07.148Z,22.40
2018-10-12T10:17:36.669Z,22.50
2018-10-12T10:23:05.943Z,22.70
2018-10-12T10:28:35.260Z,22.90
2018-10-12T10:34:04.803Z,23.00
2018-10-12T10:39:34.139Z,23.20
2018-10-12T10:45:03.965Z,23.40
2018-10-12T10:50:33.312Z,23.60
2018-10-12T10:56:02.629Z,23.70
2018-10-12T11:01:31.855Z,23.80
2018-10-12T11:07:02.225Z,23.90
2018-10-12T11:12:31.735Z,24.10
2018-10-12T11:18:01.028Z,24.20
2018-10-12T11:23:30.373Z,24.30
2018-10-12T11:28:59.864Z,24.50
2018-10-12T11:34:29.158Z,24.70
2018-10-12T11:39:58.384Z,24.60
2018-10-12T11:45:27.948Z,24.80
2018-10-12T11:50:57.309Z,24.80
2018-10-12T11:56:26.636Z,24.80
2018-10-12T12:01:55.943Z,24.80
2018-10-12T12:07:25.357Z,24.70
2018-10-12T12:12:54.645Z,24.80
2018-10-12T12:18:24.010Z,24.90
2018-10-12T12:23:54.485Z,25.00
2018-10-12T12:29:24.377Z,25.10
2018-10-12T12:34:53.945Z,25.20
2018-10-12T12:40:23.125Z,25.20
2018-10-12T12:45:52.524Z,25.30
2018-10-12T12:51:21.757Z,25.40
2018-10-12T12:56:51.146Z,25.50
2018-10-12T13:02:21.581Z,26.70
2018-10-12T13:07:51.812Z,28.10
2018-10-12T13:13:21.612Z,28.00
2018-10-12T13:18:50.901Z,27.80
2018-10-12T13:24:20.413Z,27.70
2018-10-12T13:29:49.795Z,28.00
2018-10-12T13:35:19.345Z,28.90
2018-10-12T13:40:48.672Z,29.60
2018-10-12T13:46:18.077Z,30.80
2018-10-12T13:51:47.414Z,31.90
2018-10-12T13:57:16.608Z,33.50
2018-10-12T14:02:45.920Z,34.70
2018-10-12T14:08:15.446Z,35.40
2018-10-12T14:13:44.794Z,35.60
2018-10-12T14:19:14.407Z,36.10
2018-10-12T14:24:43.436Z,36.40
2018-10-12T14:30:12.832Z,36.70
2018-10-12T14:35:42.211Z,36.60
2018-10-12T14:41:11.637Z,36.80
2018-10-12T14:46:40.997Z,36.90
2018-10-12T14:52:10.459Z,36.40
2018-10-12T14:57:39.844Z,35.40
2018-10-12T15:03:09.205Z,34.40
2018-10-12T15:08:38.488Z,32.70
2018-10-12T15:14:07.929Z,30.60
2018-10-12T15:19:38.422Z,28.90
2018-10-12T15:25:07.793Z,27.70
2018-10-12T15:30:37.134Z,26.60
2018-10-12T15:36:06.624Z,25.80
2018-10-12T15:41:36.232Z,25.10
2018-10-12T15:47:05.670Z,24.60
2018-10-12T15:52:35.260Z,24.10
2018-10-12T15:58:05.576Z,23.70
2018-10-12T16:03:35.105Z,23.40
2018-10-12T16:09:05.269Z,23.10
2018-10-12T16:14:34.724Z,22.90
2018-10-12T16:20:05.582Z,22.60
2018-10-12T16:26:04.232Z,22.30
2018-10-12T16:31:33.502Z,22.10
2018-10-12T16:37:03.223Z,21.80
2018-10-12T16:42:32.976Z,21.60
2018-10-12T16:48:02.652Z,21.30
2018-10-12T16:53:32.288Z,21.10
2018-10-12T16:59:01.943Z,20.90
2018-10-12T17:04:32.288Z,20.70
2018-10-12T17:10:02.075Z,20.50
2018-10-12T17:15:31.726Z,20.20
2018-10-12T17:21:03.089Z,20.00
2018-10-12T17:26:33.441Z,19.80
2018-10-12T17:32:02.787Z,19.60
2018-10-12T17:37:32.284Z,19.50
2018-10-12T17:43:01.953Z,19.30
2018-10-12T17:48:31.342Z,19.10
2018-10-12T17:54:05.061Z,18.90
2018-10-12T17:59:34.719Z,18.60
2018-10-12T18:05:06.281Z,18.40
2018-10-12T18:10:35.709Z,18.30
2018-10-12T18:16:07.823Z,18.10
2018-10-12T18:21:58.144Z,17.90
2018-10-12T18:27:31.104Z,17.70
2018-10-12T18:33:02.904Z,17.50
2018-10-12T18:38:33.511Z,17.40
2018-10-12T18:44:03.289Z,17.20
2018-10-12T18:49:35.274Z,17.10
2018-10-12T18:55:07.116Z,16.90
2018-10-12T19:00:47.658Z,16.80
2018-10-12T19:06:32.854Z,16.60
2018-10-12T19:12:15.056Z,16.50
2018-10-12T19:17:55.086Z,16.40
2018-10-12T19:23:39.360Z,16.20
2018-10-12T19:29:20.368Z,16.10
2018-10-12T19:34:55.357Z,15.90
2018-10-12T19:40:34.900Z,15.70
2018-10-12T19:46:11.602Z,15.60
2018-10-12T19:51:52.526Z,15.50
2018-10-12T19:57:35.001Z,15.40
2018-10-12T20:03:06.492Z,15.30
2018-10-12T20:08:55.978Z,15.10
2018-10-12T20:14:43.035Z,15.00
2018-10-12T20:20:14.274Z,14.90
2018-10-12T20:25:45.584Z,14.80
2018-10-12T20:31:26.330Z,14.70
2018-10-12T20:36:58.105Z,14.70
2018-10-12T20:42:27.636Z,14.60
2018-10-12T20:47:57.034Z,14.50
2018-10-12T20:53:26.324Z,14.40
2018-10-12T20:58:55.736Z,14.40
2018-10-12T21:04:26.415Z,14.30
2018-10-12T21:09:56.063Z,14.20
2018-10-12T21:15:25.452Z,14.00
2018-10-12T21:20:54.904Z,14.00
2018-10-12T21:26:24.587Z,13.90
2018-10-12T21:31:54.104Z,13.90
2018-10-12T21:37:23.760Z,13.90
2018-10-12T21:42:53.253Z,13.80
2018-10-12T21:48:23.065Z,13.70
2018-10-12T21:53:53.950Z,13.60
2018-10-12T21:59:23.635Z,13.50
2018-10-12T22:04:52.981Z,13.50
2018-10-12T22:10:22.255Z,13.40
2018-10-12T22:15:51.532Z,13.30
2018-10-12T22:21:21.269Z,13.20
2018-10-12T22:26:51.604Z,13.10
2018-10-12T22:32:20.784Z,13.00
2018-10-12T22:37:50.062Z,12.90
2018-10-12T22:43:19.274Z,12.80
2018-10-12T22:48:48.616Z,12.80
2018-10-12T22:54:18.168Z,12.70
2018-10-12T22:59:47.754Z,12.70
2018-10-12T23:05:16.969Z,12.60
2018-10-12T23:10:46.296Z,12.50
2018-10-12T23:16:15.524Z,12.50
2018-10-12T23:21:44.817Z,12.40
2018-10-12T23:27:14.063Z,12.40
2018-10-12T23:32:43.350Z,12.30
2018-10-12T23:38:12.649Z,12.30
2018-10-12T23:43:41.861Z,12.30
2018-10-12T23:49:12.116Z,12.20
2018-10-12T23:54:41.339Z,12.20
